Pagrindinis puslapis
METAR-TAF:

METAR-TAF

Oro uostai :

Lleida-Alguaire

Lerida, Ispanija

platuma: 41-43-40N, ilguma: 000-32-09E, Aukštis: 350 m

Dabartinis oras

Ataskaita buvo paskelbta 20 minutes, ne 23:30 UTC
Vėjas 4 kt iš Šiaurės Vakarų
Temperatūra 5°C
Drėgmė 87%
Slėgis 1014 hPa
Matomumas 10 km arba daugiau
Apsiniaukę ne aukštis 2900 ft

METAR: LEDA 302330Z AUTO 31004KT 9999 OVC029 05/03 Q1014

Laikas: 01:50 (23:50 UTC)


TAF: trūkstamas

Orai ataskaitas ir orų prognozės (METAR, TAF).

turimą stotys yra geltonos ir raudonos taškus žemėlapyje.

Perkelti pele per norėdami pamatyti stoties vardą.

Tada spustelėkite, norėdami matyti oro stebėjimo ir prognozės.

Norėdami pakeisti žemėlapį: spustelėkite ant žalios mygtukų su juodo kryžiaus žemyn,; žalią mygtuką su brūkšneliu, jei norite nutolinti; arba žalių rodyklių gretimoms žemėlapius.


METAR-TAF: